createdAt,value
2023-04-10T00:02:28.257Z,99.90
2023-04-10T00:04:56.407Z,99.90
2023-04-10T00:07:24.397Z,99.90
2023-04-10T00:09:52.565Z,99.90
2023-04-10T00:12:20.771Z,99.90
2023-04-10T00:14:48.839Z,99.90
2023-04-10T00:17:16.874Z,99.90
2023-04-10T00:19:46.396Z,99.90
2023-04-10T00:22:14.429Z,99.90
2023-04-10T00:24:42.563Z,99.90
2023-04-10T00:27:10.627Z,99.90
2023-04-10T00:29:38.624Z,99.90
2023-04-10T00:32:06.625Z,99.90
2023-04-10T00:34:34.638Z,99.90
2023-04-10T00:37:04.177Z,99.90
2023-04-10T00:39:32.152Z,99.90
2023-04-10T00:42:01.687Z,99.90
2023-04-10T00:44:29.638Z,99.90
2023-04-10T00:46:57.638Z,99.90
2023-04-10T00:49:25.739Z,99.90
2023-04-10T00:54:24.231Z,99.90
2023-04-10T00:56:52.617Z,99.90
2023-04-10T00:59:20.782Z,99.90
2023-04-10T01:01:48.969Z,99.90
2023-04-10T01:04:17.706Z,99.90
2023-04-10T01:06:55.739Z,99.90
2023-04-10T01:09:35.422Z,99.90
2023-04-10T01:12:16.996Z,99.90
2023-04-10T01:14:54.530Z,99.90
2023-04-10T01:17:30.849Z,99.90
2023-04-10T01:20:04.170Z,99.90
2023-04-10T01:22:36.807Z,99.90
2023-04-10T01:25:31.245Z,99.90
2023-04-10T01:28:12.463Z,99.90
2023-04-10T01:30:43.478Z,99.90
2023-04-10T01:33:14.723Z,99.90
2023-04-10T01:35:45.601Z,99.90
2023-04-10T01:38:14.061Z,99.90
2023-04-10T01:40:50.096Z,99.90
2023-04-10T01:43:19.116Z,99.90
2023-04-10T01:45:52.169Z,99.90
2023-04-10T01:48:20.942Z,99.90
2023-04-10T01:50:49.739Z,99.90
2023-04-10T01:53:18.763Z,99.90
2023-04-10T01:55:46.994Z,99.90
2023-04-10T01:58:15.491Z,99.90
2023-04-10T02:00:44.711Z,99.90
2023-04-10T02:03:14.399Z,99.90
2023-04-10T02:06:12.041Z,99.90
2023-04-10T02:08:45.284Z,99.90
2023-04-10T02:11:18.790Z,99.90
2023-04-10T02:13:48.127Z,99.90
2023-04-10T02:16:20.473Z,99.90
2023-04-10T02:18:52.080Z,99.90
2023-04-10T02:21:20.671Z,99.90
2023-04-10T02:23:49.617Z,99.90
2023-04-10T02:26:17.520Z,99.90
2023-04-10T02:28:45.491Z,99.90
2023-04-10T02:31:14.516Z,99.90
2023-04-10T02:33:42.547Z,99.90
2023-04-10T02:36:12.977Z,99.90
2023-04-10T02:38:40.887Z,99.90
2023-04-10T02:41:08.850Z,99.90
2023-04-10T02:43:37.586Z,99.90
2023-04-10T02:46:06.015Z,99.90
2023-04-10T02:48:33.980Z,99.90
2023-04-10T02:51:02.351Z,99.90
2023-04-10T02:53:31.733Z,99.90
2023-04-10T02:55:59.761Z,99.90
2023-04-10T02:58:30.548Z,99.90
2023-04-10T03:00:58.557Z,99.90
2023-04-10T03:03:27.239Z,99.90
2023-04-10T03:05:55.809Z,99.90
2023-04-10T03:08:23.933Z,99.90
2023-04-10T03:10:53.445Z,99.90
2023-04-10T03:13:23.350Z,99.90
2023-04-10T03:15:51.413Z,99.90
2023-04-10T03:18:19.404Z,99.90
2023-04-10T03:20:47.393Z,99.90
2023-04-10T03:23:15.823Z,99.90
2023-04-10T03:25:44.321Z,99.90
2023-04-10T03:28:13.830Z,99.90
2023-04-10T03:30:41.832Z,99.90
2023-04-10T03:33:09.996Z,99.90
2023-04-10T03:35:38.023Z,99.90
2023-04-10T03:38:06.200Z,99.90
2023-04-10T03:40:34.464Z,99.90
2023-04-10T03:43:02.497Z,99.90
2023-04-10T03:45:31.769Z,99.90
2023-04-10T03:48:00.625Z,99.90
2023-04-10T03:50:28.681Z,99.90
2023-04-10T03:52:56.680Z,99.90
2023-04-10T03:55:25.041Z,99.90
2023-04-10T03:57:53.158Z,99.90
2023-04-10T04:00:22.254Z,99.90
2023-04-10T04:02:52.331Z,99.90
2023-04-10T04:05:20.813Z,99.90
2023-04-10T04:07:48.907Z,99.90
2023-04-10T04:10:17.009Z,99.90
2023-04-10T04:12:44.945Z,99.90
2023-04-10T04:15:12.925Z,99.90
2023-04-10T04:17:40.922Z,99.90
2023-04-10T04:20:11.294Z,99.90
2023-04-10T04:22:39.222Z,99.90
2023-04-10T04:25:10.752Z,99.90
2023-04-10T04:27:39.976Z,99.90
2023-04-10T04:30:09.241Z,99.90
2023-04-10T04:32:37.284Z,99.90
2023-04-10T04:35:05.809Z,99.90
2023-04-10T04:37:35.344Z,99.90
2023-04-10T04:40:04.005Z,99.90
2023-04-10T04:42:32.107Z,99.90
2023-04-10T04:45:00.364Z,99.90
2023-04-10T04:47:29.782Z,99.90
2023-04-10T04:49:57.935Z,99.90
2023-04-10T04:52:27.477Z,99.90
2023-04-10T04:54:56.832Z,99.90
2023-04-10T04:57:25.049Z,99.90
2023-04-10T04:59:53.283Z,99.90
2023-04-10T05:02:22.917Z,99.90
2023-04-10T05:04:51.127Z,99.90
2023-04-10T05:07:19.069Z,99.90
2023-04-10T05:09:46.948Z,99.90
2023-04-10T05:12:16.585Z,99.90
2023-04-10T05:14:46.121Z,99.90
2023-04-10T05:17:15.104Z,99.90
2023-04-10T05:19:43.034Z,99.90
2023-04-10T05:22:11.793Z,99.90
2023-04-10T05:24:40.777Z,99.90
2023-04-10T05:27:08.671Z,99.90
2023-04-10T05:29:38.040Z,99.90
2023-04-10T05:32:07.321Z,99.90
2023-04-10T05:34:35.194Z,99.90
2023-04-10T05:37:03.121Z,99.90
2023-04-10T05:39:31.759Z,99.90
2023-04-10T05:42:01.830Z,99.90
2023-04-10T05:44:30.234Z,99.90
2023-04-10T05:46:59.861Z,99.90
2023-04-10T05:49:27.898Z,99.90
2023-04-10T05:51:55.746Z,99.90
2023-04-10T05:54:23.810Z,99.90
2023-04-10T05:56:51.882Z,99.90
2023-04-10T05:59:19.919Z,99.90
2023-04-10T06:01:48.818Z,99.90
2023-04-10T06:04:18.310Z,99.90
2023-04-10T06:06:46.388Z,99.90
2023-04-10T06:09:14.382Z,99.90
2023-04-10T06:11:43.086Z,99.90
2023-04-10T06:14:11.027Z,99.90
2023-04-10T06:16:39.378Z,99.90
2023-04-10T06:19:07.713Z,99.90
2023-04-10T06:21:37.919Z,99.90
2023-04-10T06:24:06.496Z,99.90
2023-04-10T06:26:35.623Z,99.90
2023-04-10T06:29:03.825Z,99.90
2023-04-10T06:31:35.320Z,99.90
2023-04-10T06:34:03.686Z,99.90
2023-04-10T06:36:31.960Z,99.90
2023-04-10T06:39:02.857Z,99.90
2023-04-10T06:41:30.866Z,99.90
2023-04-10T06:44:00.498Z,99.90
2023-04-10T06:46:29.723Z,99.90
2023-04-10T06:48:58.271Z,99.90
2023-04-10T06:51:27.772Z,99.90
2023-04-10T06:53:56.201Z,99.90
2023-04-10T06:56:26.028Z,99.90
2023-04-10T06:58:54.233Z,99.90
2023-04-10T07:01:22.356Z,99.90
2023-04-10T07:03:50.736Z,99.90
2023-04-10T07:06:19.606Z,99.90
2023-04-10T07:08:49.399Z,99.90
2023-04-10T07:11:17.419Z,99.90
2023-04-10T07:13:46.823Z,99.90
2023-04-10T07:16:15.055Z,99.90
2023-04-10T07:18:44.266Z,99.90
2023-04-10T07:21:13.664Z,99.90
2023-04-10T07:23:42.370Z,99.90
2023-04-10T07:26:10.479Z,99.90
2023-04-10T07:28:38.933Z,99.90
2023-04-10T07:31:08.970Z,99.90
2023-04-10T07:33:37.253Z,99.90
2023-04-10T07:36:06.112Z,99.90
2023-04-10T07:38:34.274Z,99.90
2023-04-10T07:41:02.411Z,99.90
2023-04-10T07:43:30.707Z,99.90
2023-04-10T07:45:58.922Z,99.90
2023-04-10T07:48:28.226Z,99.90
2023-04-10T07:50:56.439Z,99.90
2023-04-10T07:53:24.322Z,99.90
2023-04-10T07:55:53.648Z,99.90
2023-04-10T07:58:22.814Z,99.90
2023-04-10T08:00:50.811Z,99.90
2023-04-10T08:03:19.217Z,99.90
2023-04-10T08:05:48.913Z,99.90
2023-04-10T08:08:17.350Z,99.90
2023-04-10T08:10:45.475Z,99.90
2023-04-10T08:13:13.550Z,99.90
2023-04-10T08:15:41.790Z,99.90
2023-04-10T08:18:09.786Z,99.90
2023-04-10T08:20:37.871Z,99.90
2023-04-10T08:23:19.801Z,99.90
2023-04-10T08:25:48.699Z,99.90
2023-04-10T08:28:16.816Z,99.90
2023-04-10T08:30:44.896Z,99.90
2023-04-10T08:33:12.857Z,99.90
2023-04-10T08:35:41.030Z,99.90
2023-04-10T08:38:14.281Z,99.90
2023-04-10T08:40:44.943Z,99.90
2023-04-10T08:43:13.008Z,99.60
2023-04-10T08:45:42.308Z,99.10
2023-04-10T08:48:12.967Z,97.00
2023-04-10T08:50:43.527Z,96.50
2023-04-10T08:53:15.528Z,93.70
2023-04-10T08:55:46.482Z,92.90
2023-04-10T08:58:15.029Z,92.50
2023-04-10T09:00:43.115Z,90.60
2023-04-10T09:03:14.189Z,91.10
2023-04-10T09:05:42.672Z,91.10
2023-04-10T09:08:12.276Z,89.40
2023-04-10T09:10:41.799Z,89.80
2023-04-10T09:13:34.276Z,86.90
2023-04-10T09:16:02.599Z,88.80
2023-04-10T09:18:45.057Z,87.20
2023-04-10T09:21:15.380Z,90.10
2023-04-10T09:23:44.557Z,85.40
2023-04-10T09:26:28.502Z,90.10
2023-04-10T09:29:01.892Z,88.00
2023-04-10T09:31:34.072Z,87.20
2023-04-10T09:34:14.697Z,83.70
2023-04-10T09:36:43.417Z,85.90
2023-04-10T09:39:13.213Z,83.30
2023-04-10T09:41:50.936Z,83.20
2023-04-10T09:44:20.873Z,85.60
2023-04-10T09:46:49.710Z,86.60
2023-04-10T09:49:17.810Z,88.30
2023-04-10T09:51:47.453Z,78.60
2023-04-10T09:54:15.840Z,75.80
2023-04-10T09:56:47.286Z,79.20
2023-04-10T09:59:19.136Z,79.50
2023-04-10T10:01:47.473Z,79.80
2023-04-10T10:04:17.455Z,79.90
2023-04-10T10:06:46.816Z,80.80
2023-04-10T10:09:16.154Z,78.00
2023-04-10T10:11:44.202Z,75.70
2023-04-10T10:14:19.916Z,82.10
2023-04-10T10:16:51.776Z,80.60
2023-04-10T10:19:28.242Z,78.90
2023-04-10T10:21:57.027Z,82.80
2023-04-10T10:24:27.403Z,80.10
2023-04-10T10:26:57.335Z,81.60
2023-04-10T10:29:27.235Z,79.40
2023-04-10T10:31:56.693Z,78.00
2023-04-10T10:34:25.784Z,80.10
2023-04-10T10:36:53.765Z,77.30
2023-04-10T10:39:33.843Z,76.50
2023-04-10T10:42:10.177Z,77.80
2023-04-10T10:44:45.592Z,76.30
2023-04-10T10:47:19.032Z,79.00
2023-04-10T10:49:54.429Z,78.30
2023-04-10T10:52:42.737Z,78.60
2023-04-10T10:55:35.254Z,81.90
2023-04-10T10:58:05.230Z,81.50
2023-04-10T11:01:20.241Z,81.70
2023-04-10T11:03:50.124Z,76.70
2023-04-10T11:06:19.650Z,78.60
2023-04-10T11:08:49.042Z,77.70
2023-04-10T11:11:19.762Z,76.90
2023-04-10T11:14:18.122Z,79.50
2023-04-10T11:16:48.392Z,80.30
2023-04-10T11:19:22.611Z,80.80
2023-04-10T11:22:10.701Z,82.00
2023-04-10T11:24:53.549Z,83.60
2023-04-10T11:27:46.438Z,76.80
2023-04-10T11:30:34.746Z,81.10
2023-04-10T11:33:04.503Z,78.30
2023-04-10T11:35:34.573Z,78.40
2023-04-10T11:38:19.307Z,78.00
2023-04-10T11:41:06.672Z,77.70
2023-04-10T11:43:36.024Z,82.60
2023-04-10T11:46:06.406Z,81.20
2023-04-10T11:48:35.293Z,80.60
2023-04-10T11:51:12.231Z,75.20
2023-04-10T11:53:40.814Z,77.10
2023-04-10T11:56:17.805Z,77.40
2023-04-10T11:58:46.044Z,77.60
2023-04-10T12:01:15.589Z,77.10
2023-04-10T12:03:45.970Z,76.00
2023-04-10T12:06:16.760Z,76.30
2023-04-10T12:08:47.702Z,76.30
2023-04-10T12:11:16.212Z,75.80
2023-04-10T12:13:44.239Z,74.40
2023-04-10T12:16:13.063Z,74.70
2023-04-10T12:18:41.751Z,71.90
2023-04-10T12:21:10.130Z,74.10
2023-04-10T12:23:40.897Z,72.50
2023-04-10T12:26:12.098Z,72.70
2023-04-10T12:28:42.285Z,74.00
2023-04-10T12:31:10.808Z,72.90
2023-04-10T12:33:39.082Z,71.10
2023-04-10T12:36:07.623Z,73.50
2023-04-10T12:38:41.627Z,72.30
2023-04-10T12:41:11.327Z,72.30
2023-04-10T12:43:41.460Z,73.00
2023-04-10T12:46:11.325Z,73.90
2023-04-10T12:48:39.451Z,75.30
2023-04-10T12:51:08.083Z,75.60
2023-04-10T12:53:46.124Z,73.20
2023-04-10T12:56:14.744Z,74.10
2023-04-10T12:58:43.119Z,71.50
2023-04-10T13:01:11.529Z,72.10
2023-04-10T13:03:39.916Z,74.50
2023-04-10T13:06:08.760Z,72.70
2023-04-10T13:08:37.079Z,70.80
2023-04-10T13:11:07.117Z,72.50
2023-04-10T13:13:35.063Z,73.20
2023-04-10T13:16:03.352Z,73.70
2023-04-10T13:18:31.570Z,73.80
2023-04-10T13:20:59.554Z,73.80
2023-04-10T13:23:27.503Z,76.00
2023-04-10T13:25:56.801Z,76.40
2023-04-10T13:28:26.136Z,75.70
2023-04-10T13:30:54.177Z,76.40
2023-04-10T13:33:22.313Z,74.80
2023-04-10T13:35:50.325Z,73.80
2023-04-10T13:38:20.000Z,73.30
2023-04-10T13:40:49.371Z,72.60
2023-04-10T13:43:17.452Z,73.20
2023-04-10T13:45:46.852Z,72.10
2023-04-10T13:48:17.617Z,72.50
2023-04-10T13:50:46.860Z,71.80
2023-04-10T13:53:14.929Z,75.00
2023-04-10T13:55:43.779Z,73.10
2023-04-10T13:58:13.385Z,71.50
2023-04-10T14:00:41.520Z,74.20
2023-04-10T14:03:08.400Z,74.00
2023-04-10T14:05:37.718Z,73.20
2023-04-10T14:08:06.089Z,73.30
2023-04-10T14:10:34.173Z,73.80
2023-04-10T14:13:02.073Z,73.80
2023-04-10T14:15:30.108Z,74.10
2023-04-10T14:17:58.217Z,74.60
2023-04-10T14:20:26.712Z,74.40
2023-04-10T14:22:56.083Z,74.50
2023-04-10T14:25:24.101Z,73.70
2023-04-10T14:27:52.125Z,72.50
2023-04-10T14:30:20.322Z,71.70
2023-04-10T14:32:48.281Z,72.00
2023-04-10T14:35:16.333Z,71.00
2023-04-10T14:37:44.354Z,72.00
2023-04-10T14:40:13.958Z,69.50
2023-04-10T14:42:41.926Z,70.20
2023-04-10T14:45:11.732Z,70.20
2023-04-10T14:47:39.758Z,68.50
2023-04-10T14:50:09.325Z,69.20
2023-04-10T14:52:37.603Z,67.30
2023-04-10T14:55:06.429Z,68.30
2023-04-10T14:57:36.161Z,69.40
2023-04-10T15:00:04.355Z,69.70
2023-04-10T15:02:32.369Z,69.90
2023-04-10T15:05:00.443Z,69.90
2023-04-10T15:07:28.697Z,73.00
2023-04-10T15:09:58.281Z,69.70
2023-04-10T15:12:26.455Z,68.50
2023-04-10T15:14:56.244Z,68.00
2023-04-10T15:17:25.184Z,68.90
2023-04-10T15:19:53.362Z,67.60
2023-04-10T15:22:21.343Z,66.90
2023-04-10T15:24:50.887Z,66.80
2023-04-10T15:27:20.823Z,66.70
2023-04-10T15:29:49.054Z,68.30
2023-04-10T15:32:18.508Z,69.30
2023-04-10T15:34:46.700Z,69.30
2023-04-10T15:37:14.633Z,68.40
2023-04-10T15:39:42.662Z,68.10
2023-04-10T15:42:10.578Z,67.90
2023-04-10T15:44:38.742Z,67.30
2023-04-10T15:47:06.763Z,68.10
2023-04-10T15:49:38.176Z,68.00
2023-04-10T15:52:06.952Z,67.50
2023-04-10T15:54:35.288Z,68.60
2023-04-10T15:57:03.868Z,68.20
2023-04-10T15:59:33.346Z,68.20
2023-04-10T16:02:01.484Z,68.60
2023-04-10T16:04:29.791Z,68.40
2023-04-10T16:06:59.245Z,68.60
2023-04-10T16:09:27.307Z,69.20
2023-04-10T16:11:56.123Z,67.40
2023-04-10T16:14:24.296Z,68.20
2023-04-10T16:16:52.294Z,68.30
2023-04-10T16:19:20.265Z,67.30
2023-04-10T16:21:48.242Z,67.60
2023-04-10T16:24:17.584Z,69.40
2023-04-10T16:26:45.556Z,67.30
2023-04-10T16:29:13.450Z,68.50
2023-04-10T16:31:41.452Z,68.80
2023-04-10T16:34:09.497Z,69.40
2023-04-10T16:36:37.319Z,68.80
2023-04-10T16:39:05.728Z,69.50
2023-04-10T16:41:35.056Z,67.50
2023-04-10T16:44:03.243Z,68.20
2023-04-10T16:46:33.130Z,68.20
2023-04-10T16:49:01.566Z,68.00
2023-04-10T16:51:29.544Z,67.60
2023-04-10T16:53:57.431Z,67.90
2023-04-10T16:56:25.522Z,68.40
2023-04-10T16:58:55.144Z,68.40
2023-04-10T17:01:26.173Z,68.60
2023-04-10T17:03:54.913Z,68.60
2023-04-10T17:06:23.178Z,70.10
2023-04-10T17:08:51.285Z,71.30
2023-04-10T17:11:19.269Z,70.60
2023-04-10T17:13:47.560Z,69.60
2023-04-10T17:16:17.050Z,69.20
2023-04-10T17:18:45.171Z,69.30
2023-04-10T17:21:13.374Z,69.10
2023-04-10T17:23:42.222Z,70.70
2023-04-10T17:26:15.070Z,70.40
2023-04-10T17:28:45.141Z,70.20
2023-04-10T17:31:13.747Z,71.10
2023-04-10T17:33:43.598Z,71.00
2023-04-10T17:36:13.060Z,70.40
2023-04-10T17:38:41.565Z,70.70
2023-04-10T17:41:10.761Z,71.50
2023-04-10T17:43:38.627Z,72.40
2023-04-10T17:46:07.369Z,73.60
2023-04-10T17:48:35.549Z,74.20
2023-04-10T17:51:07.610Z,75.00
2023-04-10T17:53:36.090Z,76.80
2023-04-10T17:56:04.261Z,76.90
2023-04-10T17:58:32.441Z,76.70
2023-04-10T18:01:00.808Z,78.90
2023-04-10T18:03:29.005Z,79.40
2023-04-10T18:05:57.130Z,78.60
2023-04-10T18:08:27.104Z,78.70
2023-04-10T18:10:55.174Z,79.60
2023-04-10T18:13:23.052Z,79.90
2023-04-10T18:15:50.989Z,80.00
2023-04-10T18:18:18.969Z,83.60
2023-04-10T18:20:46.848Z,82.50
2023-04-10T18:23:14.848Z,80.30
2023-04-10T18:25:53.361Z,82.10
2023-04-10T18:28:21.482Z,82.70
2023-04-10T18:30:49.619Z,80.80
2023-04-10T18:33:23.077Z,80.40
2023-04-10T18:35:52.590Z,81.80
2023-04-10T18:38:20.956Z,82.40
2023-04-10T18:40:50.911Z,81.80
2023-04-10T18:43:18.808Z,85.00
2023-04-10T18:45:46.741Z,81.80
2023-04-10T18:48:14.913Z,82.90
2023-04-10T18:50:43.067Z,82.80
2023-04-10T18:53:11.206Z,83.30
2023-04-10T18:55:39.230Z,83.50
2023-04-10T18:58:09.082Z,84.10
2023-04-10T19:00:37.211Z,82.60
2023-04-10T19:03:05.407Z,83.40
2023-04-10T19:05:34.428Z,84.10
2023-04-10T19:08:04.803Z,83.30
2023-04-10T19:10:33.224Z,81.30
2023-04-10T19:13:01.622Z,81.70
2023-04-10T19:15:31.436Z,79.50
2023-04-10T19:17:59.444Z,79.20
2023-04-10T19:20:52.318Z,79.40
2023-04-10T19:23:15.489Z,79.10
2023-04-10T19:25:43.779Z,77.90
2023-04-10T19:28:12.323Z,76.80
2023-04-10T19:30:41.768Z,77.50
2023-04-10T19:33:10.099Z,76.40
2023-04-10T19:35:38.134Z,76.40
2023-04-10T19:38:06.173Z,75.60
2023-04-10T19:40:34.737Z,76.50
2023-04-10T19:43:02.703Z,76.40
2023-04-10T19:45:32.439Z,75.60
2023-04-10T19:48:01.967Z,76.00
2023-04-10T19:50:31.257Z,75.70
2023-04-10T19:52:59.591Z,75.60
2023-04-10T19:55:28.109Z,75.50
2023-04-10T19:57:56.178Z,75.70
2023-04-10T20:00:24.115Z,75.60
2023-04-10T20:02:52.345Z,75.80
2023-04-10T20:05:22.326Z,75.60
2023-04-10T20:07:50.592Z,75.50
2023-04-10T20:10:18.648Z,75.50
2023-04-10T20:12:46.639Z,75.50
2023-04-10T20:15:14.810Z,76.30
2023-04-10T20:17:42.780Z,76.50
2023-04-10T20:20:12.772Z,77.00
2023-04-10T20:22:43.100Z,76.00
2023-04-10T20:25:11.384Z,77.00
2023-04-10T20:27:39.429Z,77.00
2023-04-10T20:30:08.709Z,76.90
2023-04-10T20:32:37.168Z,76.50
2023-04-10T20:35:05.590Z,76.50
2023-04-10T20:37:33.589Z,77.20
2023-04-10T20:40:05.929Z,76.90
2023-04-10T20:42:33.992Z,77.50
2023-04-10T20:45:01.934Z,77.70
2023-04-10T20:47:30.064Z,77.60
2023-04-10T20:49:58.087Z,77.20
2023-04-10T20:52:26.088Z,77.50
2023-04-10T20:54:54.042Z,77.50
2023-04-10T20:57:23.869Z,77.70
2023-04-10T20:59:52.001Z,78.20
2023-04-10T21:02:20.219Z,77.50
2023-04-10T21:04:48.244Z,78.60
2023-04-10T21:07:16.194Z,77.90
2023-04-10T21:09:44.292Z,77.90
2023-04-10T21:12:12.245Z,78.10
2023-04-10T21:14:41.625Z,77.60
2023-04-10T21:17:09.646Z,77.80
2023-04-10T21:19:37.619Z,78.30
2023-04-10T21:22:05.674Z,77.80
2023-04-10T21:24:33.708Z,78.20
2023-04-10T21:27:01.743Z,77.90
2023-04-10T21:29:30.160Z,78.00
2023-04-10T21:31:59.739Z,78.00
2023-04-10T21:34:27.855Z,78.40
2023-04-10T21:36:56.038Z,78.20
2023-04-10T21:39:24.148Z,78.50
2023-04-10T21:41:52.354Z,78.00
2023-04-10T21:44:21.125Z,78.70
2023-04-10T21:46:49.229Z,78.80
2023-04-10T21:49:18.642Z,78.90
2023-04-10T21:51:46.673Z,79.30
2023-04-10T21:54:14.646Z,79.50
2023-04-10T21:56:42.855Z,78.80
2023-04-10T21:59:10.978Z,78.60
2023-04-10T22:01:41.656Z,78.50
2023-04-10T22:04:10.017Z,78.60
2023-04-10T22:06:39.522Z,80.00
2023-04-10T22:09:07.472Z,79.50
2023-04-10T22:11:39.002Z,79.90
2023-04-10T22:14:15.922Z,79.90
2023-04-10T22:16:46.113Z,80.00
2023-04-10T22:19:14.155Z,80.00
2023-04-10T22:21:43.581Z,80.00
2023-04-10T22:24:11.651Z,80.00
2023-04-10T22:26:42.048Z,80.00
2023-04-10T22:29:10.086Z,80.30
2023-04-10T22:31:38.128Z,80.90
2023-04-10T22:34:06.012Z,80.80
2023-04-10T22:36:34.633Z,80.50
2023-04-10T22:39:04.528Z,80.90
2023-04-10T22:41:33.158Z,82.10
2023-04-10T22:44:01.279Z,82.30
2023-04-10T22:46:29.327Z,83.20
2023-04-10T22:48:57.809Z,82.40
2023-04-10T22:51:26.841Z,82.40
2023-04-10T22:53:54.886Z,82.60
2023-04-10T22:56:26.555Z,82.70
2023-04-10T22:58:54.810Z,82.50
2023-04-10T23:01:23.164Z,83.00
2023-04-10T23:03:53.814Z,83.30
2023-04-10T23:06:22.060Z,83.40
2023-04-10T23:08:49.980Z,83.10
2023-04-10T23:11:18.035Z,83.30
2023-04-10T23:13:48.812Z,84.10
2023-04-10T23:16:16.792Z,84.20
2023-04-10T23:18:44.648Z,84.10
2023-04-10T23:21:12.479Z,84.20
2023-04-10T23:23:40.285Z,84.10
2023-04-10T23:26:08.588Z,84.20
2023-04-10T23:28:36.497Z,84.20
2023-04-10T23:31:05.932Z,83.50
2023-04-10T23:33:33.842Z,83.90
2023-04-10T23:36:01.684Z,84.10
2023-04-10T23:38:29.539Z,84.40
2023-04-10T23:40:57.458Z,84.20
2023-04-10T23:43:25.319Z,84.10
2023-04-10T23:45:53.241Z,84.70
2023-04-10T23:48:22.366Z,84.20
2023-04-10T23:50:50.270Z,84.20
2023-04-10T23:53:18.112Z,83.80
2023-04-10T23:55:45.917Z,83.50
2023-04-10T23:58:13.743Z,83.40
